createdAt,value
2023-03-17T00:00:43.128Z,59.02
2023-03-17T00:03:24.669Z,58.48
2023-03-17T00:05:53.484Z,59.59
2023-03-17T00:08:23.127Z,59.58
2023-03-17T00:10:51.617Z,59.92
2023-03-17T00:13:19.258Z,60.70
2023-03-17T00:15:47.416Z,60.65
2023-03-17T00:18:15.704Z,60.66
2023-03-17T00:20:42.902Z,61.08
2023-03-17T00:23:19.819Z,60.56
2023-03-17T00:25:47.972Z,60.37
2023-03-17T00:28:18.938Z,60.02
2023-03-17T00:30:46.549Z,59.53
2023-03-17T00:33:16.194Z,59.52
2023-03-17T00:35:44.306Z,59.55
2023-03-17T00:38:14.712Z,58.94
2023-03-17T00:40:42.385Z,58.82
2023-03-17T00:43:09.981Z,58.66
2023-03-17T00:45:37.813Z,58.82
2023-03-17T00:48:11.064Z,59.15
2023-03-17T00:50:39.006Z,58.35
2023-03-17T00:53:06.653Z,59.18
2023-03-17T00:55:35.090Z,58.60
2023-03-17T00:58:02.983Z,58.84
2023-03-17T01:00:32.400Z,58.64
2023-03-17T01:03:04.258Z,58.02
2023-03-17T01:05:32.136Z,58.03
2023-03-17T01:07:59.694Z,58.35
2023-03-17T01:10:28.090Z,58.21
2023-03-17T01:12:58.205Z,58.08
2023-03-17T01:15:26.977Z,58.35
2023-03-17T01:17:54.919Z,58.38
2023-03-17T01:20:25.850Z,58.17
2023-03-17T01:22:53.363Z,57.98
2023-03-17T01:25:21.446Z,58.17
2023-03-17T01:27:49.394Z,58.08
2023-03-17T01:30:16.804Z,58.31
2023-03-17T01:32:44.906Z,58.06
2023-03-17T01:35:13.293Z,58.16
2023-03-17T01:37:41.383Z,58.75
2023-03-17T01:40:12.986Z,58.15
2023-03-17T01:42:41.486Z,58.32
2023-03-17T01:45:29.660Z,58.28
2023-03-17T01:47:57.506Z,58.15
2023-03-17T01:50:25.723Z,59.04
2023-03-17T01:52:53.755Z,59.75
2023-03-17T01:55:21.714Z,59.79
2023-03-17T01:57:54.323Z,59.97
2023-03-17T02:00:24.410Z,59.65
2023-03-17T02:02:52.684Z,60.01
2023-03-17T02:05:23.096Z,59.87
2023-03-17T02:07:51.610Z,59.91
2023-03-17T02:10:19.713Z,59.65
2023-03-17T02:12:47.799Z,60.11
2023-03-17T02:15:15.591Z,59.97
2023-03-17T02:17:44.005Z,60.01
2023-03-17T02:20:16.970Z,60.72
2023-03-17T02:22:45.188Z,59.86
2023-03-17T02:25:14.089Z,60.34
2023-03-17T02:27:46.544Z,60.07
2023-03-17T02:30:17.100Z,59.96
2023-03-17T02:32:45.143Z,59.72
2023-03-17T02:35:13.399Z,59.68
2023-03-17T02:37:44.698Z,59.61
2023-03-17T02:40:14.440Z,60.41
2023-03-17T02:42:45.892Z,59.47
2023-03-17T02:45:17.256Z,59.49
2023-03-17T02:47:45.244Z,60.24
2023-03-17T02:50:18.167Z,60.08
2023-03-17T02:52:46.253Z,60.13
2023-03-17T02:55:14.388Z,60.80
2023-03-17T02:57:42.676Z,60.62
2023-03-17T03:00:13.520Z,61.52
2023-03-17T03:02:41.524Z,60.72
2023-03-17T03:05:11.411Z,60.03
2023-03-17T03:07:39.019Z,60.48
2023-03-17T03:10:09.442Z,59.80
2023-03-17T03:12:37.974Z,59.14
2023-03-17T03:15:09.736Z,59.84
2023-03-17T03:17:37.608Z,59.94
2023-03-17T03:20:08.529Z,60.36
2023-03-17T03:22:36.466Z,60.17
2023-03-17T03:25:04.935Z,59.72
2023-03-17T03:27:32.755Z,59.19
2023-03-17T03:30:00.900Z,59.44
2023-03-17T03:32:28.345Z,59.35
2023-03-17T03:34:56.968Z,59.64
2023-03-17T03:37:25.856Z,59.21
2023-03-17T03:39:54.103Z,59.39
2023-03-17T03:42:22.155Z,59.02
2023-03-17T03:44:50.199Z,58.36
2023-03-17T03:47:20.744Z,59.11
2023-03-17T03:49:48.741Z,59.02
2023-03-17T03:52:16.473Z,58.86
2023-03-17T03:54:44.686Z,58.57
2023-03-17T03:57:13.476Z,59.33
2023-03-17T03:59:41.396Z,58.72
2023-03-17T04:02:10.154Z,59.42
2023-03-17T04:04:39.011Z,59.10
2023-03-17T04:07:07.724Z,59.47
2023-03-17T04:09:35.532Z,60.21
2023-03-17T04:12:04.117Z,59.76
2023-03-17T04:14:31.836Z,59.87
2023-03-17T04:17:00.420Z,59.71
2023-03-17T04:19:28.134Z,60.33
2023-03-17T04:21:56.155Z,60.53
2023-03-17T04:24:24.252Z,60.56
2023-03-17T04:26:52.710Z,61.08
2023-03-17T04:29:20.613Z,60.40
2023-03-17T04:31:48.951Z,60.78
2023-03-17T04:34:18.091Z,60.56
2023-03-17T04:36:46.748Z,60.31
2023-03-17T04:39:14.927Z,60.85
2023-03-17T04:41:43.033Z,60.80
2023-03-17T04:44:11.097Z,61.20
2023-03-17T04:46:39.174Z,60.75
2023-03-17T04:49:06.992Z,61.22
2023-03-17T04:51:36.939Z,61.37
2023-03-17T04:54:03.927Z,61.74
2023-03-17T04:56:32.462Z,60.53
2023-03-17T04:59:00.789Z,61.06
2023-03-17T05:01:28.930Z,60.31
2023-03-17T05:03:57.018Z,60.39
2023-03-17T05:06:25.280Z,60.15
2023-03-17T05:08:53.616Z,60.77
2023-03-17T05:11:21.821Z,60.12
2023-03-17T05:13:49.963Z,59.90
2023-03-17T05:16:17.646Z,60.03
2023-03-17T05:18:45.609Z,60.78
2023-03-17T05:21:13.369Z,60.91
2023-03-17T05:23:41.945Z,60.54
2023-03-17T05:26:10.351Z,60.32
2023-03-17T05:28:38.341Z,60.12
2023-03-17T05:31:07.252Z,60.05
2023-03-17T05:33:37.321Z,60.40
2023-03-17T05:36:07.264Z,59.98
2023-03-17T05:38:34.838Z,59.98
2023-03-17T05:41:04.602Z,60.70
2023-03-17T05:43:32.802Z,61.30
2023-03-17T05:46:01.156Z,60.32
2023-03-17T05:48:29.615Z,59.92
2023-03-17T05:50:57.250Z,59.08
2023-03-17T05:53:29.392Z,59.24
2023-03-17T05:55:57.814Z,58.58
2023-03-17T05:58:25.766Z,58.32
2023-03-17T06:00:53.409Z,57.63
2023-03-17T06:03:22.997Z,58.14
2023-03-17T06:05:50.879Z,58.63
2023-03-17T06:08:18.745Z,60.03
2023-03-17T06:10:46.554Z,60.91
2023-03-17T06:13:14.579Z,59.88
2023-03-17T06:15:45.512Z,58.88
2023-03-17T06:18:13.695Z,57.76
2023-03-17T06:20:44.580Z,56.66
2023-03-17T06:23:12.577Z,56.52
2023-03-17T06:25:40.401Z,55.38
2023-03-17T06:28:08.477Z,55.04
2023-03-17T06:30:40.407Z,54.88
2023-03-17T06:33:08.806Z,54.02
2023-03-17T06:35:36.728Z,54.55
2023-03-17T06:38:08.974Z,54.54
2023-03-17T06:40:36.105Z,53.87
2023-03-17T06:43:04.492Z,53.77
2023-03-17T06:45:35.413Z,52.93
2023-03-17T06:48:03.719Z,52.21
2023-03-17T06:50:31.384Z,52.02
2023-03-17T06:52:59.133Z,51.70
2023-03-17T06:55:27.635Z,51.43
2023-03-17T06:57:55.768Z,51.28
2023-03-17T07:00:24.463Z,51.05
2023-03-17T07:02:52.787Z,50.93
2023-03-17T07:05:20.804Z,50.68
2023-03-17T07:07:48.713Z,51.31
2023-03-17T07:10:16.493Z,51.39
2023-03-17T07:12:44.967Z,50.64
2023-03-17T07:15:13.619Z,50.67
2023-03-17T07:17:42.580Z,50.71
2023-03-17T07:20:12.573Z,50.82
2023-03-17T07:22:40.988Z,50.49
2023-03-17T07:25:11.013Z,50.09
2023-03-17T07:27:38.867Z,50.31
2023-03-17T07:30:08.097Z,50.09
2023-03-17T07:32:36.399Z,49.78
2023-03-17T07:35:05.236Z,49.03
2023-03-17T07:37:33.302Z,47.95
2023-03-17T07:40:01.214Z,47.29
2023-03-17T07:42:29.103Z,46.94
2023-03-17T07:44:56.852Z,46.11
2023-03-17T07:47:25.013Z,45.03
2023-03-17T07:49:53.303Z,45.48
2023-03-17T07:52:21.244Z,44.97
2023-03-17T07:54:49.562Z,44.35
2023-03-17T07:57:17.218Z,44.41
2023-03-17T07:59:45.453Z,43.00
2023-03-17T08:02:17.235Z,43.25
2023-03-17T08:04:48.891Z,42.71
2023-03-17T08:07:16.370Z,42.50
2023-03-17T08:09:44.656Z,41.45
2023-03-17T08:12:14.106Z,41.85
2023-03-17T08:14:41.814Z,41.65
2023-03-17T08:17:10.549Z,42.14
2023-03-17T08:19:38.952Z,41.17
2023-03-17T08:22:08.348Z,39.23
2023-03-17T08:24:37.113Z,36.91
2023-03-17T08:27:05.348Z,37.15
2023-03-17T08:29:33.573Z,36.92
2023-03-17T08:32:01.641Z,36.24
2023-03-17T08:34:29.468Z,33.86
2023-03-17T08:36:57.447Z,31.82
2023-03-17T08:39:25.534Z,33.22
2023-03-17T08:41:53.479Z,34.11
2023-03-17T08:44:21.851Z,32.90
2023-03-17T08:46:49.592Z,33.36
2023-03-17T08:49:17.798Z,32.87
2023-03-17T08:51:45.300Z,33.77
2023-03-17T08:54:12.635Z,34.13
2023-03-17T08:56:41.112Z,33.52
2023-03-17T08:59:31.596Z,32.92
2023-03-17T09:01:59.493Z,33.55
2023-03-17T09:04:28.122Z,34.25
2023-03-17T09:07:03.256Z,34.79
2023-03-17T09:09:32.292Z,34.70
2023-03-17T09:12:00.399Z,35.48
2023-03-17T09:14:28.974Z,33.88
2023-03-17T09:16:57.561Z,32.86
2023-03-17T09:19:25.898Z,32.68
2023-03-17T09:21:53.859Z,32.86
2023-03-17T09:24:21.696Z,33.48
2023-03-17T09:26:49.291Z,33.54
2023-03-17T09:29:17.385Z,34.09
2023-03-17T09:31:47.130Z,33.71
2023-03-17T09:34:15.255Z,33.22
2023-03-17T09:36:42.810Z,33.04
2023-03-17T09:39:10.603Z,33.21
2023-03-17T09:41:57.441Z,33.58
2023-03-17T09:44:45.527Z,33.21
2023-03-17T09:47:29.249Z,33.48
2023-03-17T09:49:59.052Z,33.42
2023-03-17T09:52:31.264Z,31.93
2023-03-17T09:54:58.146Z,32.80
2023-03-17T09:57:40.701Z,33.03
2023-03-17T10:00:19.423Z,32.74
2023-03-17T10:02:46.862Z,32.71
2023-03-17T10:05:13.903Z,32.41
2023-03-17T10:08:29.617Z,31.42
2023-03-17T10:11:18.816Z,32.52
2023-03-17T10:14:00.792Z,32.07
2023-03-17T10:16:33.733Z,31.72
2023-03-17T10:19:27.536Z,31.95
2023-03-17T10:21:59.206Z,31.93
2023-03-17T10:24:26.507Z,31.87
2023-03-17T10:26:54.347Z,32.20
2023-03-17T10:29:24.852Z,31.36
2023-03-17T10:31:53.336Z,32.61
2023-03-17T10:34:28.100Z,31.26
2023-03-17T10:37:27.375Z,31.87
2023-03-17T10:39:56.957Z,32.07
2023-03-17T10:42:29.358Z,32.31
2023-03-17T10:45:04.684Z,31.43
2023-03-17T10:47:40.791Z,32.36
2023-03-17T10:50:23.087Z,31.11
2023-03-17T10:52:59.674Z,32.20
2023-03-17T10:55:32.997Z,30.68
2023-03-17T10:58:08.351Z,30.01
2023-03-17T11:00:36.449Z,29.00
2023-03-17T11:03:13.785Z,28.72
2023-03-17T11:05:41.633Z,28.88
2023-03-17T11:08:17.853Z,27.49
2023-03-17T11:10:47.539Z,25.33
2023-03-17T11:13:17.791Z,24.78
2023-03-17T11:15:54.654Z,24.67
2023-03-17T11:18:24.294Z,24.99
2023-03-17T11:21:04.406Z,24.80
2023-03-17T11:23:48.257Z,23.72
2023-03-17T11:26:42.240Z,22.89
2023-03-17T11:29:30.493Z,22.59
2023-03-17T11:31:57.480Z,21.99
2023-03-17T11:34:40.476Z,22.15
2023-03-17T11:37:26.035Z,22.81
2023-03-17T11:40:05.975Z,22.67
2023-03-17T11:42:37.117Z,22.76
2023-03-17T11:45:15.751Z,23.01
2023-03-17T11:48:04.856Z,22.33
2023-03-17T11:50:40.193Z,23.55
2023-03-17T11:53:07.439Z,23.58
2023-03-17T11:56:04.422Z,24.28
2023-03-17T11:58:42.574Z,24.69
2023-03-17T12:01:13.675Z,25.19
2023-03-17T12:03:49.107Z,25.90
2023-03-17T12:06:33.659Z,26.20
2023-03-17T12:09:07.921Z,24.60
2023-03-17T12:11:38.255Z,24.84
2023-03-17T12:14:08.389Z,23.58
2023-03-17T12:16:35.444Z,22.58
2023-03-17T12:19:17.034Z,22.07
2023-03-17T12:21:54.398Z,21.37
2023-03-17T12:24:23.024Z,21.79
2023-03-17T12:27:01.947Z,22.74
2023-03-17T12:29:35.428Z,21.15
2023-03-17T12:32:16.938Z,20.93
2023-03-17T12:34:52.635Z,21.93
2023-03-17T12:37:19.761Z,21.18
2023-03-17T12:40:15.754Z,20.82
2023-03-17T12:43:07.420Z,21.17
2023-03-17T12:45:48.734Z,20.54
2023-03-17T12:48:25.803Z,21.21
2023-03-17T12:51:38.377Z,19.31
2023-03-17T12:54:12.293Z,19.26
2023-03-17T12:56:39.348Z,20.25
2023-03-17T12:59:08.639Z,21.18
2023-03-17T13:01:42.191Z,19.06
2023-03-17T13:04:26.465Z,19.98
2023-03-17T13:07:24.650Z,20.20
2023-03-17T13:09:54.503Z,20.11
2023-03-17T13:12:36.771Z,20.19
2023-03-17T13:15:03.984Z,20.21
2023-03-17T13:17:32.292Z,20.43
2023-03-17T13:20:08.289Z,19.58
2023-03-17T13:23:24.345Z,19.04
2023-03-17T13:25:55.188Z,18.92
2023-03-17T13:28:41.414Z,19.62
2023-03-17T13:31:28.539Z,19.05
2023-03-17T13:33:56.719Z,17.98
2023-03-17T13:36:36.364Z,18.68
2023-03-17T13:39:24.700Z,18.45
2023-03-17T13:41:55.779Z,18.53
2023-03-17T13:44:43.534Z,18.93
2023-03-17T13:47:34.030Z,18.86
2023-03-17T13:50:08.761Z,19.27
2023-03-17T13:52:40.870Z,19.28
2023-03-17T13:55:23.703Z,19.49
2023-03-17T13:58:24.053Z,18.41
2023-03-17T14:00:57.099Z,19.19
2023-03-17T14:03:43.946Z,18.47
2023-03-17T14:06:12.124Z,18.80
2023-03-17T14:08:47.855Z,18.71
2023-03-17T14:11:29.777Z,18.73
2023-03-17T14:14:06.103Z,19.05
2023-03-17T14:16:42.686Z,18.44
2023-03-17T14:19:21.655Z,17.52
2023-03-17T14:21:48.791Z,18.15
2023-03-17T14:24:46.075Z,17.78
2023-03-17T14:27:15.373Z,18.16
2023-03-17T14:29:42.166Z,18.83
2023-03-17T14:32:17.607Z,18.96
2023-03-17T14:34:48.284Z,18.22
2023-03-17T14:37:16.121Z,18.65
2023-03-17T14:39:52.261Z,18.78
2023-03-17T14:42:21.210Z,19.10
2023-03-17T14:44:49.234Z,20.08
2023-03-17T14:47:20.637Z,21.14
2023-03-17T14:49:48.615Z,22.43
2023-03-17T14:52:21.655Z,21.60
2023-03-17T14:54:53.705Z,21.60
2023-03-17T14:57:51.196Z,20.97
2023-03-17T15:00:37.901Z,21.46
2023-03-17T15:03:17.333Z,21.66
2023-03-17T15:05:49.475Z,21.27
2023-03-17T15:08:41.122Z,21.45
2023-03-17T15:11:16.044Z,21.91
2023-03-17T15:13:44.059Z,22.32
2023-03-17T15:16:40.408Z,21.83
2023-03-17T15:19:20.510Z,21.54
2023-03-17T15:21:59.873Z,21.95
2023-03-17T15:24:41.353Z,22.77
2023-03-17T15:27:18.249Z,22.84
2023-03-17T15:29:45.495Z,23.03
2023-03-17T15:32:16.667Z,22.52
2023-03-17T15:34:44.894Z,22.87
2023-03-17T15:37:18.074Z,23.12
2023-03-17T15:39:46.177Z,23.36
2023-03-17T15:42:14.102Z,24.11
2023-03-17T15:44:41.773Z,23.87
2023-03-17T15:47:10.580Z,23.72
2023-03-17T15:49:38.592Z,24.07
2023-03-17T15:52:15.581Z,24.59
2023-03-17T15:54:45.793Z,24.72
2023-03-17T15:57:13.546Z,24.78
2023-03-17T15:59:41.399Z,25.79
2023-03-17T16:02:27.916Z,24.61
2023-03-17T16:04:55.926Z,24.69
2023-03-17T16:07:23.803Z,24.87
2023-03-17T16:09:52.062Z,26.23
2023-03-17T16:12:19.916Z,25.68
2023-03-17T16:14:47.917Z,25.10
2023-03-17T16:17:20.635Z,26.23
2023-03-17T16:19:48.086Z,26.51
2023-03-17T16:22:35.474Z,25.70
2023-03-17T16:25:04.807Z,25.74
2023-03-17T16:27:32.985Z,25.75
2023-03-17T16:30:00.690Z,26.50
2023-03-17T16:32:28.405Z,26.79
2023-03-17T16:34:56.583Z,28.20
2023-03-17T16:37:24.697Z,29.24
2023-03-17T16:39:53.007Z,28.55
2023-03-17T16:42:23.573Z,28.48
2023-03-17T16:44:51.006Z,28.77
2023-03-17T16:47:19.086Z,28.80
2023-03-17T16:49:46.966Z,29.30
2023-03-17T16:52:15.063Z,30.03
2023-03-17T16:54:42.727Z,30.45
2023-03-17T16:57:12.037Z,30.65
2023-03-17T16:59:40.065Z,31.00
2023-03-17T17:02:15.451Z,30.28
2023-03-17T17:04:43.485Z,30.70
2023-03-17T17:07:11.802Z,31.73
2023-03-17T17:09:39.803Z,32.04
2023-03-17T17:12:08.726Z,32.44
2023-03-17T17:14:37.009Z,33.08
2023-03-17T17:17:04.373Z,34.16
2023-03-17T17:19:35.077Z,35.11
2023-03-17T17:22:03.359Z,35.88
2023-03-17T17:24:31.218Z,36.39
2023-03-17T17:26:59.744Z,37.07
2023-03-17T17:29:27.809Z,37.63
2023-03-17T17:31:55.876Z,37.59
2023-03-17T17:34:24.362Z,38.46
2023-03-17T17:36:52.126Z,39.27
2023-03-17T17:39:20.261Z,39.87
2023-03-17T17:41:48.547Z,39.79
2023-03-17T17:44:16.357Z,40.06
2023-03-17T17:46:45.426Z,40.17
2023-03-17T17:49:13.300Z,39.92
2023-03-17T17:51:41.022Z,40.77
2023-03-17T17:54:09.227Z,40.80
2023-03-17T17:56:40.151Z,40.71
2023-03-17T17:59:08.132Z,40.39
2023-03-17T18:01:36.092Z,40.33
2023-03-17T18:04:03.747Z,40.97
2023-03-17T18:06:32.015Z,42.43
2023-03-17T18:08:59.778Z,43.09
2023-03-17T18:11:27.720Z,43.71
2023-03-17T18:13:55.934Z,44.20
2023-03-17T18:16:24.685Z,44.27
2023-03-17T18:18:51.683Z,44.77
2023-03-17T18:21:19.229Z,45.24
2023-03-17T18:23:50.085Z,46.31
2023-03-17T18:26:17.817Z,46.88
2023-03-17T18:28:45.104Z,47.71
2023-03-17T18:31:14.474Z,49.00
2023-03-17T18:33:42.168Z,48.33
2023-03-17T18:36:09.849Z,48.34
2023-03-17T18:38:37.917Z,48.92
2023-03-17T18:41:05.341Z,48.25
2023-03-17T18:43:33.101Z,49.08
2023-03-17T18:46:01.156Z,47.27
2023-03-17T18:48:28.814Z,46.13
2023-03-17T18:50:56.886Z,48.04
2023-03-17T18:53:24.280Z,50.28
2023-03-17T18:55:53.106Z,51.87
2023-03-17T18:58:20.734Z,50.95
2023-03-17T19:00:49.616Z,51.07
2023-03-17T19:03:17.406Z,50.23
2023-03-17T19:05:45.717Z,50.14
2023-03-17T19:08:15.307Z,50.24
2023-03-17T19:10:46.333Z,52.81
2023-03-17T19:13:14.250Z,53.33
2023-03-17T19:15:42.052Z,54.13
2023-03-17T19:18:12.310Z,54.41
2023-03-17T19:20:40.996Z,54.37
2023-03-17T19:23:08.781Z,52.15
2023-03-17T19:25:36.916Z,50.26
2023-03-17T19:28:05.404Z,48.49
2023-03-17T19:30:32.898Z,49.62
2023-03-17T19:33:00.845Z,51.40
2023-03-17T19:35:29.073Z,50.01
2023-03-17T19:37:57.121Z,48.98
2023-03-17T19:40:25.513Z,49.24
2023-03-17T19:42:53.161Z,48.86
2023-03-17T19:45:26.172Z,50.13
2023-03-17T19:47:54.102Z,52.40
2023-03-17T19:50:21.833Z,51.95
2023-03-17T19:52:49.629Z,51.08
2023-03-17T19:55:17.930Z,51.14
2023-03-17T19:57:45.583Z,50.59
2023-03-17T20:00:15.028Z,50.29
2023-03-17T20:02:45.879Z,50.91
2023-03-17T20:05:14.081Z,51.67
2023-03-17T20:07:42.159Z,52.09
2023-03-17T20:10:13.469Z,52.03
2023-03-17T20:12:42.633Z,52.65
2023-03-17T20:15:10.278Z,51.74
2023-03-17T20:17:38.304Z,52.48
2023-03-17T20:20:10.575Z,51.98
2023-03-17T20:22:40.585Z,54.01
2023-03-17T20:25:10.629Z,52.39
2023-03-17T20:27:38.750Z,52.72
2023-03-17T20:30:08.374Z,52.81
2023-03-17T20:32:36.277Z,53.72
2023-03-17T20:35:06.737Z,55.51
2023-03-17T20:37:35.859Z,56.17
2023-03-17T20:40:05.601Z,56.97
2023-03-17T20:42:33.752Z,58.05
2023-03-17T20:45:03.350Z,58.40
2023-03-17T20:47:30.872Z,58.67
2023-03-17T20:49:59.503Z,55.84
2023-03-17T20:52:30.062Z,55.19
2023-03-17T20:54:59.576Z,54.48
2023-03-17T20:57:27.722Z,53.75
2023-03-17T20:59:56.065Z,53.84
2023-03-17T21:02:24.015Z,53.48
2023-03-17T21:04:52.573Z,52.61
2023-03-17T21:07:21.247Z,53.96
2023-03-17T21:09:49.656Z,53.15
2023-03-17T21:12:20.648Z,54.18
2023-03-17T21:14:48.768Z,54.43
2023-03-17T21:17:16.437Z,54.59
2023-03-17T21:19:44.505Z,53.90
2023-03-17T21:22:12.652Z,54.26
2023-03-17T21:24:40.668Z,53.62
2023-03-17T21:27:11.258Z,54.10
2023-03-17T21:29:40.049Z,54.62
2023-03-17T21:32:08.667Z,55.35
2023-03-17T21:34:36.955Z,54.73
2023-03-17T21:37:05.811Z,55.26
2023-03-17T21:39:33.150Z,54.76
2023-03-17T21:42:02.091Z,56.25
2023-03-17T21:44:29.726Z,56.68
2023-03-17T21:46:57.612Z,56.79
2023-03-17T21:49:25.318Z,57.55
2023-03-17T21:51:54.517Z,58.80
2023-03-17T21:54:22.602Z,58.08
2023-03-17T21:56:50.185Z,59.43
2023-03-17T21:59:18.794Z,58.92
2023-03-17T22:01:46.947Z,59.49
2023-03-17T22:04:14.707Z,60.48
2023-03-17T22:06:42.445Z,60.85
2023-03-17T22:09:11.112Z,61.02
2023-03-17T22:11:38.864Z,61.52
2023-03-17T22:14:06.743Z,62.22
2023-03-17T22:16:34.737Z,61.71
2023-03-17T22:19:02.480Z,62.07
2023-03-17T22:21:31.930Z,62.48
2023-03-17T22:23:59.818Z,63.72
2023-03-17T22:26:28.548Z,63.99
2023-03-17T22:28:55.793Z,64.77
2023-03-17T22:31:25.626Z,64.40
2023-03-17T22:33:55.459Z,64.82
2023-03-17T22:36:23.988Z,65.08
2023-03-17T22:38:51.970Z,65.39
2023-03-17T22:41:21.814Z,65.50
2023-03-17T22:43:49.493Z,65.47
2023-03-17T22:46:18.070Z,64.82
2023-03-17T22:48:46.327Z,64.80
2023-03-17T22:51:16.715Z,64.91
2023-03-17T22:53:44.742Z,65.39
2023-03-17T22:56:12.980Z,64.61
2023-03-17T22:58:41.117Z,66.37
2023-03-17T23:01:09.248Z,65.82
2023-03-17T23:03:37.184Z,66.04
2023-03-17T23:06:05.087Z,67.35
2023-03-17T23:08:35.305Z,68.02
2023-03-17T23:11:04.607Z,67.70
2023-03-17T23:13:32.442Z,66.96
2023-03-17T23:16:01.012Z,66.88
2023-03-17T23:18:29.151Z,66.35
2023-03-17T23:20:56.938Z,66.66
2023-03-17T23:23:24.571Z,67.25
2023-03-17T23:25:52.288Z,66.66
2023-03-17T23:28:26.540Z,65.66
2023-03-17T23:30:54.208Z,65.30
2023-03-17T23:33:22.995Z,65.59
2023-03-17T23:35:51.560Z,65.23
2023-03-17T23:38:19.633Z,64.47
2023-03-17T23:40:46.783Z,64.29
2023-03-17T23:43:14.949Z,65.27
2023-03-17T23:45:44.289Z,66.03
2023-03-17T23:48:11.974Z,66.42
2023-03-17T23:50:41.177Z,65.93
2023-03-17T23:53:09.647Z,66.58
2023-03-17T23:55:37.818Z,67.41
2023-03-17T23:58:06.294Z,68.18
